sensor_id;sensor_type;location;lat;lon;timestamp;temperature;humidity
31759;DHT22;36334;51.366;0.020;2022-10-16T00:00:35;12.60;99.90
31759;DHT22;36334;51.366;0.020;2022-10-16T00:03:22;12.60;99.90
31759;DHT22;36334;51.366;0.020;2022-10-16T00:06:16;12.60;99.90
31759;DHT22;36334;51.366;0.020;2022-10-16T00:09:03;12.60;99.90
31759;DHT22;36334;51.366;0.020;2022-10-16T00:11:49;12.60;99.90
31759;DHT22;36334;51.366;0.020;2022-10-16T00:14:38;12.70;99.90
31759;DHT22;36334;51.366;0.020;2022-10-16T00:17:27;12.80;99.90
31759;DHT22;36334;51.366;0.020;2022-10-16T00:20:13;12.80;99.90
31759;DHT22;36334;51.366;0.020;2022-10-16T00:23:18;12.90;99.90
31759;DHT22;36334;51.366;0.020;2022-10-16T00:26:08;13.00;99.90
31759;DHT22;36334;51.366;0.020;2022-10-16T00:28:54;13.00;99.90
31759;DHT22;36334;51.366;0.020;2022-10-16T00:31:40;13.10;99.90
31759;DHT22;36334;51.366;0.020;2022-10-16T00:34:26;13.10;99.90
31759;DHT22;36334;51.366;0.020;2022-10-16T00:37:13;13.10;99.90
31759;DHT22;36334;51.366;0.020;2022-10-16T00:39:59;13.00;99.90
31759;DHT22;36334;51.366;0.020;2022-10-16T00:42:45;13.00;99.90
31759;DHT22;36334;51.366;0.020;2022-10-16T00:45:31;12.90;99.90
31759;DHT22;36334;51.366;0.020;2022-10-16T00:48:17;12.90;99.90
31759;DHT22;36334;51.366;0.020;2022-10-16T00:51:04;12.80;99.90
31759;DHT22;36334;51.366;0.020;2022-10-16T00:53:52;12.80;99.90
31759;DHT22;36334;51.366;0.020;2022-10-16T00:56:38;12.80;99.90
31759;DHT22;36334;51.366;0.020;2022-10-16T00:59:30;12.80;99.90
31759;DHT22;36334;51.366;0.020;2022-10-16T01:02:17;12.70;99.90
31759;DHT22;36334;51.366;0.020;2022-10-16T01:05:04;12.60;99.90
31759;DHT22;36334;51.366;0.020;2022-10-16T01:07:59;12.60;99.90
31759;DHT22;36334;51.366;0.020;2022-10-16T01:11:07;12.50;99.90
31759;DHT22;36334;51.366;0.020;2022-10-16T01:14:00;12.40;99.90
31759;DHT22;36334;51.366;0.020;2022-10-16T01:17:03;12.40;99.90
31759;DHT22;36334;51.366;0.020;2022-10-16T01:23:02;12.30;99.90
31759;DHT22;36334;51.366;0.020;2022-10-16T01:29:25;12.20;99.90
31759;DHT22;36334;51.366;0.020;2022-10-16T01:32:33;12.20;99.90
31759;DHT22;36334;51.366;0.020;2022-10-16T01:35:30;12.20;99.90
31759;DHT22;36334;51.366;0.020;2022-10-16T01:38:35;12.20;99.90
31759;DHT22;36334;51.366;0.020;2022-10-16T01:41:32;12.20;99.90
31759;DHT22;36334;51.366;0.020;2022-10-16T01:44:22;12.20;99.90
31759;DHT22;36334;51.366;0.020;2022-10-16T01:47:13;12.20;99.90
31759;DHT22;36334;51.366;0.020;2022-10-16T01:50:02;12.20;99.90
31759;DHT22;36334;51.366;0.020;2022-10-16T01:52:52;12.20;99.90
31759;DHT22;36334;51.366;0.020;2022-10-16T01:55:43;12.20;99.90
31759;DHT22;36334;51.366;0.020;2022-10-16T01:58:37;12.30;99.90
31759;DHT22;36334;51.366;0.020;2022-10-16T02:01:26;12.30;99.90
31759;DHT22;36334;51.366;0.020;2022-10-16T02:07:16;12.50;99.90
31759;DHT22;36334;51.366;0.020;2022-10-16T02:10:02;12.60;99.90
31759;DHT22;36334;51.366;0.020;2022-10-16T02:13:04;12.60;99.90
31759;DHT22;36334;51.366;0.020;2022-10-16T02:15:51;12.80;99.90
31759;DHT22;36334;51.366;0.020;2022-10-16T02:18:41;12.80;99.90
31759;DHT22;36334;51.366;0.020;2022-10-16T02:24:46;12.90;99.90
31759;DHT22;36334;51.366;0.020;2022-10-16T02:30:43;13.00;99.90
31759;DHT22;36334;51.366;0.020;2022-10-16T02:33:32;13.00;99.90
31759;DHT22;36334;51.366;0.020;2022-10-16T02:36:19;13.00;99.90
31759;DHT22;36334;51.366;0.020;2022-10-16T02:39:08;12.90;99.90
31759;DHT22;36334;51.366;0.020;2022-10-16T02:41:55;12.80;99.90
31759;DHT22;36334;51.366;0.020;2022-10-16T02:44:41;12.80;99.90
31759;DHT22;36334;51.366;0.020;2022-10-16T02:47:27;12.70;99.90
31759;DHT22;36334;51.366;0.020;2022-10-16T02:50:17;12.70;99.90
31759;DHT22;36334;51.366;0.020;2022-10-16T02:53:03;12.60;99.90
31759;DHT22;36334;51.366;0.020;2022-10-16T02:55:49;12.60;99.90
31759;DHT22;36334;51.366;0.020;2022-10-16T02:58:35;12.50;99.90
31759;DHT22;36334;51.366;0.020;2022-10-16T03:01:21;12.50;99.90
31759;DHT22;36334;51.366;0.020;2022-10-16T03:04:08;12.40;99.90
31759;DHT22;36334;51.366;0.020;2022-10-16T03:06:56;12.40;99.90
31759;DHT22;36334;51.366;0.020;2022-10-16T03:09:42;12.40;99.90
31759;DHT22;36334;51.366;0.020;2022-10-16T03:12:29;12.40;99.90
31759;DHT22;36334;51.366;0.020;2022-10-16T03:15:16;12.30;99.90
31759;DHT22;36334;51.366;0.020;2022-10-16T03:18:02;12.30;99.90
31759;DHT22;36334;51.366;0.020;2022-10-16T03:20:48;12.30;99.90
31759;DHT22;36334;51.366;0.020;2022-10-16T03:23:33;12.20;99.90
31759;DHT22;36334;51.366;0.020;2022-10-16T03:26:19;12.20;99.90
31759;DHT22;36334;51.366;0.020;2022-10-16T03:29:05;12.20;99.90
31759;DHT22;36334;51.366;0.020;2022-10-16T03:31:52;12.20;99.90
31759;DHT22;36334;51.366;0.020;2022-10-16T03:34:39;12.20;99.90
31759;DHT22;36334;51.366;0.020;2022-10-16T03:37:25;12.10;99.90
31759;DHT22;36334;51.366;0.020;2022-10-16T03:40:12;12.10;99.90
31759;DHT22;36334;51.366;0.020;2022-10-16T03:42:59;12.10;99.90
31759;DHT22;36334;51.366;0.020;2022-10-16T03:45:49;12.10;99.90
31759;DHT22;36334;51.366;0.020;2022-10-16T03:48:35;12.10;99.90
31759;DHT22;36334;51.366;0.020;2022-10-16T03:51:21;12.10;99.90
31759;DHT22;36334;51.366;0.020;2022-10-16T03:54:07;12.00;99.90
31759;DHT22;36334;51.366;0.020;2022-10-16T03:56:54;12.00;99.90
31759;DHT22;36334;51.366;0.020;2022-10-16T03:59:40;12.10;99.90
31759;DHT22;36334;51.366;0.020;2022-10-16T04:02:29;12.00;99.90
31759;DHT22;36334;51.366;0.020;2022-10-16T04:05:15;12.00;99.90
31759;DHT22;36334;51.366;0.020;2022-10-16T04:08:02;12.00;99.90
31759;DHT22;36334;51.366;0.020;2022-10-16T04:10:48;12.00;99.90
31759;DHT22;36334;51.366;0.020;2022-10-16T04:13:34;11.90;99.90
31759;DHT22;36334;51.366;0.020;2022-10-16T04:16:20;11.90;99.90
31759;DHT22;36334;51.366;0.020;2022-10-16T04:19:07;11.90;99.90
31759;DHT22;36334;51.366;0.020;2022-10-16T04:21:52;11.80;99.90
31759;DHT22;36334;51.366;0.020;2022-10-16T04:24:38;11.80;99.90
31759;DHT22;36334;51.366;0.020;2022-10-16T04:27:25;11.80;99.90
31759;DHT22;36334;51.366;0.020;2022-10-16T04:30:11;11.80;99.90
31759;DHT22;36334;51.366;0.020;2022-10-16T04:32:58;11.70;99.90
31759;DHT22;36334;51.366;0.020;2022-10-16T04:35:46;11.70;99.90
31759;DHT22;36334;51.366;0.020;2022-10-16T04:38:32;11.70;99.90
31759;DHT22;36334;51.366;0.020;2022-10-16T04:41:18;11.70;99.90
31759;DHT22;36334;51.366;0.020;2022-10-16T04:44:05;11.70;99.90
31759;DHT22;36334;51.366;0.020;2022-10-16T04:46:51;11.60;99.90
31759;DHT22;36334;51.366;0.020;2022-10-16T04:49:37;11.60;99.90
31759;DHT22;36334;51.366;0.020;2022-10-16T04:52:23;11.60;99.90
31759;DHT22;36334;51.366;0.020;2022-10-16T04:55:10;11.60;99.90
31759;DHT22;36334;51.366;0.020;2022-10-16T04:57:57;11.50;99.90
31759;DHT22;36334;51.366;0.020;2022-10-16T05:00:44;11.50;99.90
31759;DHT22;36334;51.366;0.020;2022-10-16T05:03:32;11.50;99.90
31759;DHT22;36334;51.366;0.020;2022-10-16T05:06:21;11.50;99.90
31759;DHT22;36334;51.366;0.020;2022-10-16T05:09:07;11.50;99.90
31759;DHT22;36334;51.366;0.020;2022-10-16T05:11:53;11.50;99.90
31759;DHT22;36334;51.366;0.020;2022-10-16T05:14:40;11.50;99.90
31759;DHT22;36334;51.366;0.020;2022-10-16T05:17:26;11.50;99.90
31759;DHT22;36334;51.366;0.020;2022-10-16T05:20:13;11.50;99.90
31759;DHT22;36334;51.366;0.020;2022-10-16T05:22:59;11.50;99.90
31759;DHT22;36334;51.366;0.020;2022-10-16T05:25:53;11.50;99.90
31759;DHT22;36334;51.366;0.020;2022-10-16T05:28:40;11.50;99.90
31759;DHT22;36334;51.366;0.020;2022-10-16T05:31:26;11.50;99.90
31759;DHT22;36334;51.366;0.020;2022-10-16T05:34:13;11.50;99.90
31759;DHT22;36334;51.366;0.020;2022-10-16T05:37:00;11.50;99.90
31759;DHT22;36334;51.366;0.020;2022-10-16T05:39:46;11.50;99.90
31759;DHT22;36334;51.366;0.020;2022-10-16T05:42:33;11.50;99.90
31759;DHT22;36334;51.366;0.020;2022-10-16T05:45:20;11.50;99.90
31759;DHT22;36334;51.366;0.020;2022-10-16T05:48:06;11.50;99.90
31759;DHT22;36334;51.366;0.020;2022-10-16T05:51:05;11.50;99.90
31759;DHT22;36334;51.366;0.020;2022-10-16T05:53:52;11.50;99.90
31759;DHT22;36334;51.366;0.020;2022-10-16T05:56:38;11.50;99.90
31759;DHT22;36334;51.366;0.020;2022-10-16T05:59:24;11.50;99.90
31759;DHT22;36334;51.366;0.020;2022-10-16T06:02:13;11.50;99.90
31759;DHT22;36334;51.366;0.020;2022-10-16T06:04:59;11.50;99.90
31759;DHT22;36334;51.366;0.020;2022-10-16T06:07:45;11.40;99.90
31759;DHT22;36334;51.366;0.020;2022-10-16T06:10:31;11.40;99.90
31759;DHT22;36334;51.366;0.020;2022-10-16T06:13:18;11.40;99.90
31759;DHT22;36334;51.366;0.020;2022-10-16T06:16:04;11.40;99.90
31759;DHT22;36334;51.366;0.020;2022-10-16T06:18:51;11.30;99.90
31759;DHT22;36334;51.366;0.020;2022-10-16T06:21:38;11.30;99.90
31759;DHT22;36334;51.366;0.020;2022-10-16T06:24:25;11.30;99.90
31759;DHT22;36334;51.366;0.020;2022-10-16T06:27:11;11.30;99.90
31759;DHT22;36334;51.366;0.020;2022-10-16T06:29:57;11.30;99.90
31759;DHT22;36334;51.366;0.020;2022-10-16T06:32:44;11.30;99.90
31759;DHT22;36334;51.366;0.020;2022-10-16T06:35:30;11.20;99.90
31759;DHT22;36334;51.366;0.020;2022-10-16T06:38:18;11.20;99.90
31759;DHT22;36334;51.366;0.020;2022-10-16T06:41:05;11.20;99.90
31759;DHT22;36334;51.366;0.020;2022-10-16T06:43:55;11.20;99.90
31759;DHT22;36334;51.366;0.020;2022-10-16T06:46:41;11.10;99.90
31759;DHT22;36334;51.366;0.020;2022-10-16T06:49:27;11.10;99.90
31759;DHT22;36334;51.366;0.020;2022-10-16T06:52:14;11.10;99.90
31759;DHT22;36334;51.366;0.020;2022-10-16T06:55:00;11.20;99.90
31759;DHT22;36334;51.366;0.020;2022-10-16T06:57:47;11.20;99.90
31759;DHT22;36334;51.366;0.020;2022-10-16T07:00:34;11.20;99.90
31759;DHT22;36334;51.366;0.020;2022-10-16T07:03:20;11.20;99.90
31759;DHT22;36334;51.366;0.020;2022-10-16T07:06:08;11.20;99.90
31759;DHT22;36334;51.366;0.020;2022-10-16T07:08:54;11.20;99.90
31759;DHT22;36334;51.366;0.020;2022-10-16T07:11:40;11.20;99.90
31759;DHT22;36334;51.366;0.020;2022-10-16T07:14:26;11.30;99.90
31759;DHT22;36334;51.366;0.020;2022-10-16T07:17:12;11.30;99.90
31759;DHT22;36334;51.366;0.020;2022-10-16T07:19:59;11.30;99.90
31759;DHT22;36334;51.366;0.020;2022-10-16T07:22:45;11.30;99.90
31759;DHT22;36334;51.366;0.020;2022-10-16T07:25:31;11.30;99.90
31759;DHT22;36334;51.366;0.020;2022-10-16T07:28:17;11.30;99.90
31759;DHT22;36334;51.366;0.020;2022-10-16T07:31:07;11.40;99.90
31759;DHT22;36334;51.366;0.020;2022-10-16T07:33:54;11.40;99.90
31759;DHT22;36334;51.366;0.020;2022-10-16T07:36:40;11.40;99.90
31759;DHT22;36334;51.366;0.020;2022-10-16T07:39:27;11.50;99.90
31759;DHT22;36334;51.366;0.020;2022-10-16T07:42:13;11.50;99.90
31759;DHT22;36334;51.366;0.020;2022-10-16T07:45:00;11.60;99.90
31759;DHT22;36334;51.366;0.020;2022-10-16T07:47:45;11.60;99.90
31759;DHT22;36334;51.366;0.020;2022-10-16T07:50:31;11.70;99.90
31759;DHT22;36334;51.366;0.020;2022-10-16T07:53:18;11.70;99.90
31759;DHT22;36334;51.366;0.020;2022-10-16T07:56:10;11.70;99.90
31759;DHT22;36334;51.366;0.020;2022-10-16T07:58:57;11.70;99.90
31759;DHT22;36334;51.366;0.020;2022-10-16T08:01:46;11.90;99.90
31759;DHT22;36334;51.366;0.020;2022-10-16T08:04:31;11.90;99.90
31759;DHT22;36334;51.366;0.020;2022-10-16T08:07:18;11.90;99.90
31759;DHT22;36334;51.366;0.020;2022-10-16T08:10:04;12.00;99.90
31759;DHT22;36334;51.366;0.020;2022-10-16T08:12:51;12.10;99.90
31759;DHT22;36334;51.366;0.020;2022-10-16T08:15:37;12.30;99.90
31759;DHT22;36334;51.366;0.020;2022-10-16T08:18:23;12.50;99.90
31759;DHT22;36334;51.366;0.020;2022-10-16T08:21:16;12.60;99.90
31759;DHT22;36334;51.366;0.020;2022-10-16T08:24:05;12.80;99.90
31759;DHT22;36334;51.366;0.020;2022-10-16T08:26:57;13.00;99.90
31759;DHT22;36334;51.366;0.020;2022-10-16T08:29:43;13.20;99.90
31759;DHT22;36334;51.366;0.020;2022-10-16T08:32:29;13.30;99.90
31759;DHT22;36334;51.366;0.020;2022-10-16T08:35:16;13.50;99.90
31759;DHT22;36334;51.366;0.020;2022-10-16T08:38:04;13.70;99.90
31759;DHT22;36334;51.366;0.020;2022-10-16T08:40:50;13.80;99.90
31759;DHT22;36334;51.366;0.020;2022-10-16T08:47:12;13.90;99.90
31759;DHT22;36334;51.366;0.020;2022-10-16T08:50:10;13.90;99.90
31759;DHT22;36334;51.366;0.020;2022-10-16T08:52:57;13.80;99.90
31759;DHT22;36334;51.366;0.020;2022-10-16T08:55:50;13.80;99.90
31759;DHT22;36334;51.366;0.020;2022-10-16T08:58:37;13.80;99.90
31759;DHT22;36334;51.366;0.020;2022-10-16T09:01:32;13.70;99.90
31759;DHT22;36334;51.366;0.020;2022-10-16T09:07:35;13.80;99.90
31759;DHT22;36334;51.366;0.020;2022-10-16T09:17:00;13.80;99.90
31759;DHT22;36334;51.366;0.020;2022-10-16T09:20:03;13.80;99.90
31759;DHT22;36334;51.366;0.020;2022-10-16T09:25:51;13.80;99.90
31759;DHT22;36334;51.366;0.020;2022-10-16T09:28:37;13.80;99.90
31759;DHT22;36334;51.366;0.020;2022-10-16T09:31:24;13.80;99.90
31759;DHT22;36334;51.366;0.020;2022-10-16T09:34:27;13.80;99.90
31759;DHT22;36334;51.366;0.020;2022-10-16T09:37:21;13.80;99.90
31759;DHT22;36334;51.366;0.020;2022-10-16T09:40:13;13.80;99.90
31759;DHT22;36334;51.366;0.020;2022-10-16T09:46:21;13.90;99.90
31759;DHT22;36334;51.366;0.020;2022-10-16T09:49:27;13.90;99.90
31759;DHT22;36334;51.366;0.020;2022-10-16T09:52:15;13.90;99.90
31759;DHT22;36334;51.366;0.020;2022-10-16T09:55:12;14.00;99.90
31759;DHT22;36334;51.366;0.020;2022-10-16T09:57:59;14.00;99.90
31759;DHT22;36334;51.366;0.020;2022-10-16T10:00:53;14.10;99.90
31759;DHT22;36334;51.366;0.020;2022-10-16T10:03:41;14.10;99.90
31759;DHT22;36334;51.366;0.020;2022-10-16T10:06:34;14.20;99.90
31759;DHT22;36334;51.366;0.020;2022-10-16T10:12:27;14.30;99.90
31759;DHT22;36334;51.366;0.020;2022-10-16T10:15:14;14.40;99.90
31759;DHT22;36334;51.366;0.020;2022-10-16T10:18:21;14.60;99.90
31759;DHT22;36334;51.366;0.020;2022-10-16T10:21:14;14.70;99.90
31759;DHT22;36334;51.366;0.020;2022-10-16T10:24:03;14.90;99.90
31759;DHT22;36334;51.366;0.020;2022-10-16T10:27:16;15.00;99.90
31759;DHT22;36334;51.366;0.020;2022-10-16T10:36:35;15.50;99.90
31759;DHT22;36334;51.366;0.020;2022-10-16T10:39:31;15.70;99.90
31759;DHT22;36334;51.366;0.020;2022-10-16T10:42:53;15.90;99.90
31759;DHT22;36334;51.366;0.020;2022-10-16T10:45:47;16.00;99.90
31759;DHT22;36334;51.366;0.020;2022-10-16T10:54:58;16.40;99.90
31759;DHT22;36334;51.366;0.020;2022-10-16T11:04:04;16.70;99.90
31759;DHT22;36334;51.366;0.020;2022-10-16T11:07:04;16.70;99.90
31759;DHT22;36334;51.366;0.020;2022-10-16T11:09:59;16.80;99.90
31759;DHT22;36334;51.366;0.020;2022-10-16T11:12:55;16.90;99.90
31759;DHT22;36334;51.366;0.020;2022-10-16T11:15:43;16.90;99.90
31759;DHT22;36334;51.366;0.020;2022-10-16T11:18:47;17.00;99.90
31759;DHT22;36334;51.366;0.020;2022-10-16T11:21:51;17.00;99.90
31759;DHT22;36334;51.366;0.020;2022-10-16T11:24:45;17.10;99.90
31759;DHT22;36334;51.366;0.020;2022-10-16T11:30:32;17.10;99.90
31759;DHT22;36334;51.366;0.020;2022-10-16T11:39:21;17.30;99.90
31759;DHT22;36334;51.366;0.020;2022-10-16T11:45:45;17.30;99.90
31759;DHT22;36334;51.366;0.020;2022-10-16T11:48:38;17.40;99.90
31759;DHT22;36334;51.366;0.020;2022-10-16T11:51:45;17.50;99.90
31759;DHT22;36334;51.366;0.020;2022-10-16T11:54:44;17.60;99.90
31759;DHT22;36334;51.366;0.020;2022-10-16T11:57:54;17.60;99.90
31759;DHT22;36334;51.366;0.020;2022-10-16T12:04:24;17.70;99.90
31759;DHT22;36334;51.366;0.020;2022-10-16T12:07:17;17.90;99.90
31759;DHT22;36334;51.366;0.020;2022-10-16T12:10:24;17.90;99.90
31759;DHT22;36334;51.366;0.020;2022-10-16T12:13:32;18.00;99.90
31759;DHT22;36334;51.366;0.020;2022-10-16T12:16:21;18.00;99.90
31759;DHT22;36334;51.366;0.020;2022-10-16T12:19:14;17.90;99.90
31759;DHT22;36334;51.366;0.020;2022-10-16T12:22:02;17.90;99.90
31759;DHT22;36334;51.366;0.020;2022-10-16T12:24:52;17.80;99.90
31759;DHT22;36334;51.366;0.020;2022-10-16T12:27:38;17.80;99.90
31759;DHT22;36334;51.366;0.020;2022-10-16T12:30:30;17.80;99.90
31759;DHT22;36334;51.366;0.020;2022-10-16T12:36:32;17.70;99.90
31759;DHT22;36334;51.366;0.020;2022-10-16T12:39:20;17.60;99.90
31759;DHT22;36334;51.366;0.020;2022-10-16T12:45:30;17.40;99.90
31759;DHT22;36334;51.366;0.020;2022-10-16T12:48:21;17.40;99.90
31759;DHT22;36334;51.366;0.020;2022-10-16T12:51:36;17.40;99.90
31759;DHT22;36334;51.366;0.020;2022-10-16T12:57:33;17.30;99.90
31759;DHT22;36334;51.366;0.020;2022-10-16T13:00:46;17.40;99.90
31759;DHT22;36334;51.366;0.020;2022-10-16T13:06:56;17.40;99.90
31759;DHT22;36334;51.366;0.020;2022-10-16T13:10:05;17.50;99.90
31759;DHT22;36334;51.366;0.020;2022-10-16T13:25:28;17.60;99.90
31759;DHT22;36334;51.366;0.020;2022-10-16T13:28:18;17.60;99.90
31759;DHT22;36334;51.366;0.020;2022-10-16T13:31:17;17.60;99.90
31759;DHT22;36334;51.366;0.020;2022-10-16T13:34:14;17.60;99.90
31759;DHT22;36334;51.366;0.020;2022-10-16T13:37:01;17.60;99.90
31759;DHT22;36334;51.366;0.020;2022-10-16T13:39:48;17.60;99.90
31759;DHT22;36334;51.366;0.020;2022-10-16T13:42:39;17.60;99.90
31759;DHT22;36334;51.366;0.020;2022-10-16T13:45:26;17.60;99.90
31759;DHT22;36334;51.366;0.020;2022-10-16T13:48:13;17.60;99.90
31759;DHT22;36334;51.366;0.020;2022-10-16T13:51:11;17.60;99.90
31759;DHT22;36334;51.366;0.020;2022-10-16T13:53:58;17.70;99.90
31759;DHT22;36334;51.366;0.020;2022-10-16T13:56:47;17.80;99.90
31759;DHT22;36334;51.366;0.020;2022-10-16T13:59:47;17.80;99.90
31759;DHT22;36334;51.366;0.020;2022-10-16T14:02:37;17.90;99.90
31759;DHT22;36334;51.366;0.020;2022-10-16T14:05:28;17.90;99.90
31759;DHT22;36334;51.366;0.020;2022-10-16T14:08:15;17.90;99.90
31759;DHT22;36334;51.366;0.020;2022-10-16T14:11:12;17.90;99.90
31759;DHT22;36334;51.366;0.020;2022-10-16T14:13:58;17.90;99.90
31759;DHT22;36334;51.366;0.020;2022-10-16T14:16:47;17.90;99.90
31759;DHT22;36334;51.366;0.020;2022-10-16T14:19:34;17.90;99.90
31759;DHT22;36334;51.366;0.020;2022-10-16T14:22:38;17.80;99.90
31759;DHT22;36334;51.366;0.020;2022-10-16T14:25:29;17.80;99.90
31759;DHT22;36334;51.366;0.020;2022-10-16T14:28:19;17.80;99.90
31759;DHT22;36334;51.366;0.020;2022-10-16T14:31:37;17.80;99.90
31759;DHT22;36334;51.366;0.020;2022-10-16T14:37:31;17.80;99.90
31759;DHT22;36334;51.366;0.020;2022-10-16T14:40:19;17.80;99.90
31759;DHT22;36334;51.366;0.020;2022-10-16T14:43:06;17.80;99.90
31759;DHT22;36334;51.366;0.020;2022-10-16T14:46:03;17.70;99.90
31759;DHT22;36334;51.366;0.020;2022-10-16T14:48:56;17.70;99.90
31759;DHT22;36334;51.366;0.020;2022-10-16T14:51:46;17.70;99.90
31759;DHT22;36334;51.366;0.020;2022-10-16T14:54:32;17.60;99.90
31759;DHT22;36334;51.366;0.020;2022-10-16T14:57:22;17.60;99.90
31759;DHT22;36334;51.366;0.020;2022-10-16T15:00:19;17.50;99.90
31759;DHT22;36334;51.366;0.020;2022-10-16T15:03:05;17.50;99.90
31759;DHT22;36334;51.366;0.020;2022-10-16T15:05:51;17.50;99.90
31759;DHT22;36334;51.366;0.020;2022-10-16T15:08:37;17.40;99.90
31759;DHT22;36334;51.366;0.020;2022-10-16T15:11:24;17.40;99.90
31759;DHT22;36334;51.366;0.020;2022-10-16T15:14:12;17.40;99.90
31759;DHT22;36334;51.366;0.020;2022-10-16T15:17:04;17.30;99.90
31759;DHT22;36334;51.366;0.020;2022-10-16T15:19:51;17.20;99.90
31759;DHT22;36334;51.366;0.020;2022-10-16T15:22:38;17.10;99.90
31759;DHT22;36334;51.366;0.020;2022-10-16T15:25:48;17.00;99.90
31759;DHT22;36334;51.366;0.020;2022-10-16T15:28:35;16.90;99.90
31759;DHT22;36334;51.366;0.020;2022-10-16T15:31:23;16.80;99.90
31759;DHT22;36334;51.366;0.020;2022-10-16T15:34:10;16.80;99.90
31759;DHT22;36334;51.366;0.020;2022-10-16T15:36:56;16.70;99.90
31759;DHT22;36334;51.366;0.020;2022-10-16T15:39:44;16.60;99.90
31759;DHT22;36334;51.366;0.020;2022-10-16T15:42:30;16.50;99.90
31759;DHT22;36334;51.366;0.020;2022-10-16T15:45:16;16.50;99.90
31759;DHT22;36334;51.366;0.020;2022-10-16T15:48:09;16.50;99.90
31759;DHT22;36334;51.366;0.020;2022-10-16T15:50:56;16.40;99.90
31759;DHT22;36334;51.366;0.020;2022-10-16T15:53:44;16.40;99.90
31759;DHT22;36334;51.366;0.020;2022-10-16T15:56:32;16.30;99.90
31759;DHT22;36334;51.366;0.020;2022-10-16T15:59:19;16.30;99.90
31759;DHT22;36334;51.366;0.020;2022-10-16T16:02:05;16.30;99.90
31759;DHT22;36334;51.366;0.020;2022-10-16T16:04:51;16.20;99.90
31759;DHT22;36334;51.366;0.020;2022-10-16T16:07:38;16.20;99.90
31759;DHT22;36334;51.366;0.020;2022-10-16T16:10:24;16.10;99.90
31759;DHT22;36334;51.366;0.020;2022-10-16T16:13:10;16.10;99.90
31759;DHT22;36334;51.366;0.020;2022-10-16T16:15:56;16.10;99.90
31759;DHT22;36334;51.366;0.020;2022-10-16T16:18:43;16.00;99.90
31759;DHT22;36334;51.366;0.020;2022-10-16T16:21:29;16.00;99.90
31759;DHT22;36334;51.366;0.020;2022-10-16T16:24:15;16.00;99.90
31759;DHT22;36334;51.366;0.020;2022-10-16T16:27:02;15.90;99.90
31759;DHT22;36334;51.366;0.020;2022-10-16T16:29:53;15.90;99.90
31759;DHT22;36334;51.366;0.020;2022-10-16T16:32:41;15.90;99.90
31759;DHT22;36334;51.366;0.020;2022-10-16T16:35:28;15.80;99.90
31759;DHT22;36334;51.366;0.020;2022-10-16T16:38:14;15.80;99.90
31759;DHT22;36334;51.366;0.020;2022-10-16T16:41:14;15.70;99.90
31759;DHT22;36334;51.366;0.020;2022-10-16T16:44:03;15.70;99.90
31759;DHT22;36334;51.366;0.020;2022-10-16T16:46:52;15.70;99.90
31759;DHT22;36334;51.366;0.020;2022-10-16T16:49:38;15.60;99.90
31759;DHT22;36334;51.366;0.020;2022-10-16T16:52:29;15.60;99.90
31759;DHT22;36334;51.366;0.020;2022-10-16T16:55:15;15.50;99.90
31759;DHT22;36334;51.366;0.020;2022-10-16T16:58:01;15.50;99.90
31759;DHT22;36334;51.366;0.020;2022-10-16T17:00:49;15.50;99.90
31759;DHT22;36334;51.366;0.020;2022-10-16T17:03:43;15.40;99.90
31759;DHT22;36334;51.366;0.020;2022-10-16T17:06:33;15.30;99.90
31759;DHT22;36334;51.366;0.020;2022-10-16T17:09:19;15.30;99.90
31759;DHT22;36334;51.366;0.020;2022-10-16T17:12:05;15.30;99.90
31759;DHT22;36334;51.366;0.020;2022-10-16T17:14:51;15.30;99.90
31759;DHT22;36334;51.366;0.020;2022-10-16T17:17:37;15.30;99.90
31759;DHT22;36334;51.366;0.020;2022-10-16T17:20:23;15.20;99.90
31759;DHT22;36334;51.366;0.020;2022-10-16T17:23:10;15.20;99.90
31759;DHT22;36334;51.366;0.020;2022-10-16T17:26:12;15.20;99.90
31759;DHT22;36334;51.366;0.020;2022-10-16T17:29:00;15.20;99.90
31759;DHT22;36334;51.366;0.020;2022-10-16T17:31:47;15.20;99.90
31759;DHT22;36334;51.366;0.020;2022-10-16T17:34:35;15.20;99.90
31759;DHT22;36334;51.366;0.020;2022-10-16T17:37:21;15.20;99.90
31759;DHT22;36334;51.366;0.020;2022-10-16T17:40:08;15.10;99.90
31759;DHT22;36334;51.366;0.020;2022-10-16T17:42:55;15.10;99.90
31759;DHT22;36334;51.366;0.020;2022-10-16T17:45:41;15.10;99.90
31759;DHT22;36334;51.366;0.020;2022-10-16T17:48:27;15.10;99.90
31759;DHT22;36334;51.366;0.020;2022-10-16T17:51:16;15.10;99.90
31759;DHT22;36334;51.366;0.020;2022-10-16T17:54:03;15.10;99.90
31759;DHT22;36334;51.366;0.020;2022-10-16T17:56:49;15.10;99.90
31759;DHT22;36334;51.366;0.020;2022-10-16T17:59:35;15.10;99.90
31759;DHT22;36334;51.366;0.020;2022-10-16T18:02:21;15.10;99.90
31759;DHT22;36334;51.366;0.020;2022-10-16T18:05:08;15.00;99.90
31759;DHT22;36334;51.366;0.020;2022-10-16T18:07:54;15.00;99.90
31759;DHT22;36334;51.366;0.020;2022-10-16T18:10:48;15.10;99.90
31759;DHT22;36334;51.366;0.020;2022-10-16T18:13:35;15.00;99.90
31759;DHT22;36334;51.366;0.020;2022-10-16T18:16:21;15.00;99.90
31759;DHT22;36334;51.366;0.020;2022-10-16T18:19:11;15.00;99.90
31759;DHT22;36334;51.366;0.020;2022-10-16T18:22:01;15.00;99.90
31759;DHT22;36334;51.366;0.020;2022-10-16T18:24:48;14.90;99.90
31759;DHT22;36334;51.366;0.020;2022-10-16T18:27:34;14.90;99.90
31759;DHT22;36334;51.366;0.020;2022-10-16T18:30:21;14.80;99.90
31759;DHT22;36334;51.366;0.020;2022-10-16T18:33:07;14.80;99.90
31759;DHT22;36334;51.366;0.020;2022-10-16T18:35:54;14.80;99.90
31759;DHT22;36334;51.366;0.020;2022-10-16T18:38:40;14.80;99.90
31759;DHT22;36334;51.366;0.020;2022-10-16T18:41:26;14.70;99.90
31759;DHT22;36334;51.366;0.020;2022-10-16T18:44:12;14.70;99.90
31759;DHT22;36334;51.366;0.020;2022-10-16T18:46:58;14.70;99.90
31759;DHT22;36334;51.366;0.020;2022-10-16T18:49:48;14.70;99.90
31759;DHT22;36334;51.366;0.020;2022-10-16T18:52:34;14.80;99.90
31759;DHT22;36334;51.366;0.020;2022-10-16T18:55:20;14.70;99.90
31759;DHT22;36334;51.366;0.020;2022-10-16T18:58:07;14.80;99.90
31759;DHT22;36334;51.366;0.020;2022-10-16T19:00:54;14.80;99.90
31759;DHT22;36334;51.366;0.020;2022-10-16T19:03:40;14.80;99.90
31759;DHT22;36334;51.366;0.020;2022-10-16T19:06:27;14.80;99.90
31759;DHT22;36334;51.366;0.020;2022-10-16T19:09:15;14.80;99.90
31759;DHT22;36334;51.366;0.020;2022-10-16T19:12:02;14.80;99.90
31759;DHT22;36334;51.366;0.020;2022-10-16T19:14:48;14.80;99.90
31759;DHT22;36334;51.366;0.020;2022-10-16T19:17:34;14.80;99.90
31759;DHT22;36334;51.366;0.020;2022-10-16T19:20:22;14.80;99.90
31759;DHT22;36334;51.366;0.020;2022-10-16T19:23:08;14.80;99.90
31759;DHT22;36334;51.366;0.020;2022-10-16T19:25:54;14.80;99.90
31759;DHT22;36334;51.366;0.020;2022-10-16T19:28:41;14.80;99.90
31759;DHT22;36334;51.366;0.020;2022-10-16T19:31:28;14.80;99.90